sensor_id;sensor_type;location;lat;lon;timestamp;temperature;humidity
10846;DHT22;5476;51.540;7.186;2022-07-23T00:01:53;20.40;99.90
10846;DHT22;5476;51.540;7.186;2022-07-23T00:04:20;19.20;99.90
10846;DHT22;5476;51.540;7.186;2022-07-23T00:06:52;20.30;99.90
10846;DHT22;5476;51.540;7.186;2022-07-23T00:09:19;20.20;99.90
10846;DHT22;5476;51.540;7.186;2022-07-23T00:11:49;20.20;99.90
10846;DHT22;5476;51.540;7.186;2022-07-23T00:14:18;20.10;99.90
10846;DHT22;5476;51.540;7.186;2022-07-23T00:16:46;20.10;99.90
10846;DHT22;5476;51.540;7.186;2022-07-23T00:21:43;19.50;99.90
10846;DHT22;5476;51.540;7.186;2022-07-23T00:29:14;19.60;99.90
10846;DHT22;5476;51.540;7.186;2022-07-23T00:31:42;19.50;99.90
10846;DHT22;5476;51.540;7.186;2022-07-23T00:34:29;19.60;99.90
10846;DHT22;5476;51.540;7.186;2022-07-23T00:36:59;21.10;99.90
10846;DHT22;5476;51.540;7.186;2022-07-23T00:39:29;19.60;99.90
10846;DHT22;5476;51.540;7.186;2022-07-23T00:42:05;19.60;99.90
10846;DHT22;5476;51.540;7.186;2022-07-23T00:44:41;19.70;99.90
10846;DHT22;5476;51.540;7.186;2022-07-23T00:47:11;18.90;99.90
10846;DHT22;5476;51.540;7.186;2022-07-23T00:49:38;19.60;99.90
10846;DHT22;5476;51.540;7.186;2022-07-23T00:52:05;19.60;99.90
10846;DHT22;5476;51.540;7.186;2022-07-23T00:54:33;19.70;99.90
10846;DHT22;5476;51.540;7.186;2022-07-23T00:57:00;19.60;99.90
10846;DHT22;5476;51.540;7.186;2022-07-23T00:59:28;19.60;99.90
10846;DHT22;5476;51.540;7.186;2022-07-23T01:01:59;19.50;99.90
10846;DHT22;5476;51.540;7.186;2022-07-23T01:04:27;19.50;99.90
10846;DHT22;5476;51.540;7.186;2022-07-23T01:06:54;19.40;99.90
10846;DHT22;5476;51.540;7.186;2022-07-23T01:09:21;19.40;99.90
10846;DHT22;5476;51.540;7.186;2022-07-23T01:11:51;19.50;99.90
10846;DHT22;5476;51.540;7.186;2022-07-23T01:14:21;19.40;99.90
10846;DHT22;5476;51.540;7.186;2022-07-23T01:16:50;19.40;99.90
10846;DHT22;5476;51.540;7.186;2022-07-23T01:19:20;19.40;99.90
10846;DHT22;5476;51.540;7.186;2022-07-23T01:21:50;19.40;99.90
10846;DHT22;5476;51.540;7.186;2022-07-23T01:24:20;19.40;99.90
10846;DHT22;5476;51.540;7.186;2022-07-23T01:26:52;18.80;99.90
10846;DHT22;5476;51.540;7.186;2022-07-23T01:29:22;19.30;99.90
10846;DHT22;5476;51.540;7.186;2022-07-23T01:31:49;19.30;99.90
10846;DHT22;5476;51.540;7.186;2022-07-23T01:34:17;19.30;99.90
10846;DHT22;5476;51.540;7.186;2022-07-23T01:36:44;19.20;99.90
10846;DHT22;5476;51.540;7.186;2022-07-23T01:39:12;19.20;99.90
10846;DHT22;5476;51.540;7.186;2022-07-23T01:41:41;19.30;99.90
10846;DHT22;5476;51.540;7.186;2022-07-23T01:44:08;19.30;99.90
10846;DHT22;5476;51.540;7.186;2022-07-23T01:46:36;19.20;99.90
10846;DHT22;5476;51.540;7.186;2022-07-23T01:49:05;19.20;99.90
10846;DHT22;5476;51.540;7.186;2022-07-23T01:51:32;19.20;99.90
10846;DHT22;5476;51.540;7.186;2022-07-23T01:53:59;19.20;99.90
10846;DHT22;5476;51.540;7.186;2022-07-23T01:56:27;18.60;99.90
10846;DHT22;5476;51.540;7.186;2022-07-23T01:58:55;19.10;99.90
10846;DHT22;5476;51.540;7.186;2022-07-23T02:01:22;17.50;99.90
10846;DHT22;5476;51.540;7.186;2022-07-23T02:03:52;19.10;99.90
10846;DHT22;5476;51.540;7.186;2022-07-23T02:06:25;19.10;99.90
10846;DHT22;5476;51.540;7.186;2022-07-23T02:09:18;20.00;99.90
10846;DHT22;5476;51.540;7.186;2022-07-23T02:11:45;19.10;99.90
10846;DHT22;5476;51.540;7.186;2022-07-23T02:14:19;19.10;99.90
10846;DHT22;5476;51.540;7.186;2022-07-23T02:16:47;19.30;99.90
10846;DHT22;5476;51.540;7.186;2022-07-23T02:19:14;19.10;99.90
10846;DHT22;5476;51.540;7.186;2022-07-23T02:21:42;19.10;99.90
10846;DHT22;5476;51.540;7.186;2022-07-23T02:24:09;19.10;99.90
10846;DHT22;5476;51.540;7.186;2022-07-23T02:26:37;19.00;99.90
10846;DHT22;5476;51.540;7.186;2022-07-23T02:29:07;19.10;99.90
10846;DHT22;5476;51.540;7.186;2022-07-23T02:31:37;19.00;99.90
10846;DHT22;5476;51.540;7.186;2022-07-23T02:34:04;19.00;99.90
10846;DHT22;5476;51.540;7.186;2022-07-23T02:36:38;19.00;99.90
10846;DHT22;5476;51.540;7.186;2022-07-23T02:39:05;17.60;99.90
10846;DHT22;5476;51.540;7.186;2022-07-23T02:41:35;19.00;99.90
10846;DHT22;5476;51.540;7.186;2022-07-23T02:44:03;18.90;99.90
10846;DHT22;5476;51.540;7.186;2022-07-23T02:46:32;18.90;99.90
10846;DHT22;5476;51.540;7.186;2022-07-23T02:49:00;18.20;99.90
10846;DHT22;5476;51.540;7.186;2022-07-23T02:51:30;18.80;99.90
10846;DHT22;5476;51.540;7.186;2022-07-23T02:54:04;18.80;99.90
10846;DHT22;5476;51.540;7.186;2022-07-23T02:56:46;18.80;99.90
10846;DHT22;5476;51.540;7.186;2022-07-23T02:59:15;18.80;99.90
10846;DHT22;5476;51.540;7.186;2022-07-23T03:04:49;18.90;99.90
10846;DHT22;5476;51.540;7.186;2022-07-23T03:07:24;18.60;99.90
10846;DHT22;5476;51.540;7.186;2022-07-23T03:09:53;18.70;99.90
10846;DHT22;5476;51.540;7.186;2022-07-23T03:12:21;18.60;99.90
10846;DHT22;5476;51.540;7.186;2022-07-23T03:14:53;18.60;99.90
10846;DHT22;5476;51.540;7.186;2022-07-23T03:17:20;18.60;99.90
10846;DHT22;5476;51.540;7.186;2022-07-23T03:19:56;18.60;99.90
10846;DHT22;5476;51.540;7.186;2022-07-23T03:22:27;18.60;99.90
10846;DHT22;5476;51.540;7.186;2022-07-23T03:25:01;18.40;99.90
10846;DHT22;5476;51.540;7.186;2022-07-23T03:27:34;18.50;99.90
10846;DHT22;5476;51.540;7.186;2022-07-23T03:30:04;19.30;99.90
10846;DHT22;5476;51.540;7.186;2022-07-23T03:32:32;17.20;99.90
10846;DHT22;5476;51.540;7.186;2022-07-23T03:35:04;16.90;99.90
10846;DHT22;5476;51.540;7.186;2022-07-23T03:37:34;18.50;99.90
10846;DHT22;5476;51.540;7.186;2022-07-23T03:40:03;18.40;99.90
10846;DHT22;5476;51.540;7.186;2022-07-23T03:42:33;18.40;99.90
10846;DHT22;5476;51.540;7.186;2022-07-23T03:45:00;18.40;99.90
10846;DHT22;5476;51.540;7.186;2022-07-23T03:47:28;18.30;99.90
10846;DHT22;5476;51.540;7.186;2022-07-23T03:50:00;18.10;99.90
10846;DHT22;5476;51.540;7.186;2022-07-23T03:52:29;18.20;99.90
10846;DHT22;5476;51.540;7.186;2022-07-23T03:54:57;18.20;99.90
10846;DHT22;5476;51.540;7.186;2022-07-23T03:57:24;18.20;99.90
10846;DHT22;5476;51.540;7.186;2022-07-23T03:59:52;18.30;99.90
10846;DHT22;5476;51.540;7.186;2022-07-23T04:02:19;18.20;99.90
10846;DHT22;5476;51.540;7.186;2022-07-23T04:04:48;18.20;99.90
10846;DHT22;5476;51.540;7.186;2022-07-23T04:07:15;18.20;99.90
10846;DHT22;5476;51.540;7.186;2022-07-23T04:09:45;18.20;99.90
10846;DHT22;5476;51.540;7.186;2022-07-23T04:12:16;18.20;99.90
10846;DHT22;5476;51.540;7.186;2022-07-23T04:14:43;17.70;99.90
10846;DHT22;5476;51.540;7.186;2022-07-23T04:22:07;18.10;99.90
10846;DHT22;5476;51.540;7.186;2022-07-23T04:24:34;18.10;99.90
10846;DHT22;5476;51.540;7.186;2022-07-23T04:27:06;18.10;99.90
10846;DHT22;5476;51.540;7.186;2022-07-23T04:29:35;18.10;99.90
10846;DHT22;5476;51.540;7.186;2022-07-23T04:32:05;18.10;99.90
10846;DHT22;5476;51.540;7.186;2022-07-23T04:34:35;18.10;99.90
10846;DHT22;5476;51.540;7.186;2022-07-23T04:37:02;18.10;99.90
10846;DHT22;5476;51.540;7.186;2022-07-23T04:39:32;18.10;99.90
10846;DHT22;5476;51.540;7.186;2022-07-23T04:41:59;18.10;99.90
10846;DHT22;5476;51.540;7.186;2022-07-23T04:44:28;18.20;99.90
10846;DHT22;5476;51.540;7.186;2022-07-23T04:46:55;18.20;99.90
10846;DHT22;5476;51.540;7.186;2022-07-23T04:49:24;18.20;99.90
10846;DHT22;5476;51.540;7.186;2022-07-23T04:51:53;18.20;99.90
10846;DHT22;5476;51.540;7.186;2022-07-23T04:54:24;18.20;99.90
10846;DHT22;5476;51.540;7.186;2022-07-23T04:56:56;17.50;99.90
10846;DHT22;5476;51.540;7.186;2022-07-23T04:59:25;18.20;99.90
10846;DHT22;5476;51.540;7.186;2022-07-23T05:01:54;18.20;99.90
10846;DHT22;5476;51.540;7.186;2022-07-23T05:04:24;18.30;99.90
10846;DHT22;5476;51.540;7.186;2022-07-23T05:06:54;18.80;99.90
10846;DHT22;5476;51.540;7.186;2022-07-23T05:09:21;18.30;99.90
10846;DHT22;5476;51.540;7.186;2022-07-23T05:11:49;18.30;99.90
10846;DHT22;5476;51.540;7.186;2022-07-23T05:14:17;18.30;99.90
10846;DHT22;5476;51.540;7.186;2022-07-23T05:16:44;18.30;99.90
10846;DHT22;5476;51.540;7.186;2022-07-23T05:19:12;18.30;99.90
10846;DHT22;5476;51.540;7.186;2022-07-23T05:21:40;18.40;99.90
10846;DHT22;5476;51.540;7.186;2022-07-23T05:24:16;17.90;99.90
10846;DHT22;5476;51.540;7.186;2022-07-23T05:26:48;18.30;99.90
10846;DHT22;5476;51.540;7.186;2022-07-23T05:29:23;18.40;99.90
10846;DHT22;5476;51.540;7.186;2022-07-23T05:31:54;18.40;99.90
10846;DHT22;5476;51.540;7.186;2022-07-23T05:34:25;18.50;99.90
10846;DHT22;5476;51.540;7.186;2022-07-23T05:36:54;18.50;99.90
10846;DHT22;5476;51.540;7.186;2022-07-23T05:39:23;18.50;99.90
10846;DHT22;5476;51.540;7.186;2022-07-23T05:41:56;18.60;99.90
10846;DHT22;5476;51.540;7.186;2022-07-23T05:44:37;18.80;99.90
10846;DHT22;5476;51.540;7.186;2022-07-23T05:47:09;17.90;99.90
10846;DHT22;5476;51.540;7.186;2022-07-23T05:49:41;18.60;99.90
10846;DHT22;5476;51.540;7.186;2022-07-23T05:52:08;18.60;99.90
10846;DHT22;5476;51.540;7.186;2022-07-23T05:54:41;18.70;99.90
10846;DHT22;5476;51.540;7.186;2022-07-23T05:57:09;18.70;99.90
10846;DHT22;5476;51.540;7.186;2022-07-23T05:59:42;18.70;99.90
10846;DHT22;5476;51.540;7.186;2022-07-23T06:02:12;18.40;99.90
10846;DHT22;5476;51.540;7.186;2022-07-23T06:04:41;18.70;99.90
10846;DHT22;5476;51.540;7.186;2022-07-23T06:07:13;18.80;99.90
10846;DHT22;5476;51.540;7.186;2022-07-23T06:09:43;18.80;99.90
10846;DHT22;5476;51.540;7.186;2022-07-23T06:12:17;18.80;99.90
10846;DHT22;5476;51.540;7.186;2022-07-23T06:14:44;18.80;99.90
10846;DHT22;5476;51.540;7.186;2022-07-23T06:17:11;18.70;99.90
10846;DHT22;5476;51.540;7.186;2022-07-23T06:19:42;18.80;99.90
10846;DHT22;5476;51.540;7.186;2022-07-23T06:22:09;18.80;99.90
10846;DHT22;5476;51.540;7.186;2022-07-23T06:24:36;18.90;99.90
10846;DHT22;5476;51.540;7.186;2022-07-23T06:27:03;19.00;99.90
10846;DHT22;5476;51.540;7.186;2022-07-23T06:29:30;19.10;99.90
10846;DHT22;5476;51.540;7.186;2022-07-23T06:31:57;19.10;99.90
10846;DHT22;5476;51.540;7.186;2022-07-23T06:34:24;19.00;99.90
10846;DHT22;5476;51.540;7.186;2022-07-23T06:36:56;19.10;99.90
10846;DHT22;5476;51.540;7.186;2022-07-23T06:39:23;19.10;99.90
10846;DHT22;5476;51.540;7.186;2022-07-23T06:41:50;19.10;99.90
10846;DHT22;5476;51.540;7.186;2022-07-23T06:44:17;19.10;99.90
10846;DHT22;5476;51.540;7.186;2022-07-23T06:46:44;19.10;99.90
10846;DHT22;5476;51.540;7.186;2022-07-23T06:49:11;19.20;99.90
10846;DHT22;5476;51.540;7.186;2022-07-23T06:51:38;19.20;99.90
10846;DHT22;5476;51.540;7.186;2022-07-23T06:54:07;19.30;99.90
10846;DHT22;5476;51.540;7.186;2022-07-23T06:56:34;19.40;99.90
10846;DHT22;5476;51.540;7.186;2022-07-23T06:59:01;19.40;99.90
10846;DHT22;5476;51.540;7.186;2022-07-23T07:01:28;19.50;99.90
10846;DHT22;5476;51.540;7.186;2022-07-23T07:03:55;19.50;99.90
10846;DHT22;5476;51.540;7.186;2022-07-23T07:06:22;19.50;99.90
10846;DHT22;5476;51.540;7.186;2022-07-23T07:08:49;19.60;99.90
10846;DHT22;5476;51.540;7.186;2022-07-23T07:11:17;19.60;99.90
10846;DHT22;5476;51.540;7.186;2022-07-23T07:13:44;19.60;99.90
10846;DHT22;5476;51.540;7.186;2022-07-23T07:16:11;19.70;99.90
10846;DHT22;5476;51.540;7.186;2022-07-23T07:18:38;19.70;99.90
10846;DHT22;5476;51.540;7.186;2022-07-23T07:21:08;19.70;99.90
10846;DHT22;5476;51.540;7.186;2022-07-23T07:23:35;19.80;99.90
10846;DHT22;5476;51.540;7.186;2022-07-23T07:26:02;19.80;99.90
10846;DHT22;5476;51.540;7.186;2022-07-23T07:28:30;19.80;99.90
10846;DHT22;5476;51.540;7.186;2022-07-23T07:33:25;19.50;99.90
10846;DHT22;5476;51.540;7.186;2022-07-23T07:35:51;20.00;99.90
10846;DHT22;5476;51.540;7.186;2022-07-23T07:38:18;20.00;99.90
10846;DHT22;5476;51.540;7.186;2022-07-23T07:40:45;19.90;99.90
10846;DHT22;5476;51.540;7.186;2022-07-23T07:43:12;19.90;99.90
10846;DHT22;5476;51.540;7.186;2022-07-23T07:45:41;19.90;99.90
10846;DHT22;5476;51.540;7.186;2022-07-23T07:48:08;19.90;99.90
10846;DHT22;5476;51.540;7.186;2022-07-23T07:50:35;19.90;99.90
10846;DHT22;5476;51.540;7.186;2022-07-23T07:53:02;19.90;99.90
10846;DHT22;5476;51.540;7.186;2022-07-23T07:55:29;19.90;99.90
10846;DHT22;5476;51.540;7.186;2022-07-23T07:57:56;20.00;99.90
10846;DHT22;5476;51.540;7.186;2022-07-23T08:00:23;19.90;99.90
10846;DHT22;5476;51.540;7.186;2022-07-23T08:02:53;19.90;99.90
10846;DHT22;5476;51.540;7.186;2022-07-23T08:05:21;19.90;99.90
10846;DHT22;5476;51.540;7.186;2022-07-23T08:07:49;19.80;99.90
10846;DHT22;5476;51.540;7.186;2022-07-23T08:10:16;19.90;99.90
10846;DHT22;5476;51.540;7.186;2022-07-23T08:12:49;20.00;99.90
10846;DHT22;5476;51.540;7.186;2022-07-23T08:15:29;20.20;99.90
10846;DHT22;5476;51.540;7.186;2022-07-23T08:17:58;20.30;99.90
10846;DHT22;5476;51.540;7.186;2022-07-23T08:20:27;20.40;99.90
10846;DHT22;5476;51.540;7.186;2022-07-23T08:22:56;20.50;99.90
10846;DHT22;5476;51.540;7.186;2022-07-23T08:25:25;20.70;99.90
10846;DHT22;5476;51.540;7.186;2022-07-23T08:27:52;20.90;99.90
10846;DHT22;5476;51.540;7.186;2022-07-23T08:30:20;21.00;99.90
10846;DHT22;5476;51.540;7.186;2022-07-23T08:32:56;21.20;99.90
10846;DHT22;5476;51.540;7.186;2022-07-23T08:35:27;21.40;99.90
10846;DHT22;5476;51.540;7.186;2022-07-23T08:37:55;21.50;99.90
10846;DHT22;5476;51.540;7.186;2022-07-23T08:40:22;21.50;99.90
10846;DHT22;5476;51.540;7.186;2022-07-23T08:42:50;21.60;99.90
10846;DHT22;5476;51.540;7.186;2022-07-23T08:45:19;21.60;99.90
10846;DHT22;5476;51.540;7.186;2022-07-23T08:47:49;21.60;99.90
10846;DHT22;5476;51.540;7.186;2022-07-23T08:50:16;21.70;99.90
10846;DHT22;5476;51.540;7.186;2022-07-23T08:52:44;21.90;99.90
10846;DHT22;5476;51.540;7.186;2022-07-23T08:55:11;22.00;99.90
10846;DHT22;5476;51.540;7.186;2022-07-23T08:57:39;22.20;99.90
10846;DHT22;5476;51.540;7.186;2022-07-23T09:00:06;22.20;99.90
